Time;durP1;ratioP1;P1;durP2;ratioP2;P2;SDS_P1;SDS_P2;PMS_P1;PMS_P2;Temp;Humidity;BMP_temperature;BMP_pressure;BME280_temperature;BME280_humidity;BME280_pressure;Samples;Min_cycle;Max_cycle;Signal;HPM_P1;HPM_P2
2022/03/24 00:00:50;;;;;;;237.40;127.10;;;;;;;1.89;59.74;99897.93;104859;1274;73500;-72
2022/03/24 00:03:21;;;;;;;256.50;131.60;;;;;;;1.82;59.96;99903.49;105228;1269;61274;-71
2022/03/24 00:05:48;;;;;;;257.50;132.50;;;;;;;1.76;60.11;99901.68;105094;1272;60332;-71
2022/03/24 00:08:14;;;;;;;288.00;145.60;;;;;;;1.68;60.33;99899.70;105389;1270;61257;-70
2022/03/24 00:10:41;;;;;;;268.60;135.50;;;;;;;1.63;60.34;99897.88;105078;1268;61268;-70
2022/03/24 00:13:07;;;;;;;294.00;145.60;;;;;;;1.58;60.31;99896.00;105032;1269;61281;-71
2022/03/24 00:15:34;;;;;;;275.60;144.20;;;;;;;1.54;60.33;99895.38;105265;1271;61261;-70
2022/03/24 00:18:01;;;;;;;310.10;149.70;;;;;;;1.51;60.42;99891.38;105081;1271;61385;-71
2022/03/24 00:20:28;;;;;;;276.10;141.60;;;;;;;1.48;60.68;99888.30;105047;1269;75514;-68
2022/03/24 00:22:54;;;;;;;302.50;147.90;;;;;;;1.43;60.77;99892.39;105153;1271;70567;-75
2022/03/24 00:25:21;;;;;;;285.60;146.60;;;;;;;1.37;61.08;99898.96;105181;1268;61300;-72
2022/03/24 00:27:47;;;;;;;291.60;150.10;;;;;;;1.32;61.41;99898.00;105189;1270;61264;-70
2022/03/24 00:30:15;;;;;;;283.40;140.10;;;;;;;1.31;61.53;99895.89;104728;1271;61228;-70
2022/03/24 00:32:41;;;;;;;273.40;138.60;;;;;;;1.29;61.68;99892.09;105066;1268;76670;-72
2022/03/24 00:35:08;;;;;;;269.30;135.00;;;;;;;1.25;61.78;99888.64;105039;1271;61398;-70
2022/03/24 00:37:35;;;;;;;245.50;132.50;;;;;;;1.20;61.84;99879.95;105151;1268;73241;-71
2022/03/24 00:40:07;;;;;;;256.50;130.70;;;;;;;1.14;62.11;99881.63;105327;1268;61296;-70
2022/03/24 00:42:36;;;;;;;250.80;132.80;;;;;;;1.05;62.18;99881.57;104897;1271;62027;-70
2022/03/24 00:45:09;;;;;;;;;;;;;;;0.96;62.35;99880.99;105292;1268;75364;-71
2022/03/24 00:47:36;;;;;;;277.20;131.30;;;;;;;0.91;62.56;99882.31;104408;1268;1005042;-70
2022/03/24 00:50:03;;;;;;;290.60;142.40;;;;;;;0.87;62.55;99886.90;105053;1268;61476;-70
2022/03/24 00:52:29;;;;;;;276.70;139.60;;;;;;;0.84;62.75;99882.20;104719;1271;61322;-69
2022/03/24 00:54:55;;;;;;;283.40;142.60;;;;;;;0.80;62.91;99879.98;104787;1268;259683;-71
2022/03/24 00:57:22;;;;;;;277.40;142.20;;;;;;;0.77;62.98;99884.74;104941;1268;61350;-71
2022/03/24 00:59:49;;;;;;;285.00;139.20;;;;;;;0.74;63.23;99887.05;104969;1268;70140;-70
2022/03/24 01:02:16;;;;;;;270.30;142.10;;;;;;;0.69;63.34;99886.77;104959;1268;61255;-71
2022/03/24 01:04:43;;;;;;;261.40;135.70;;;;;;;0.66;63.39;99887.34;104946;1269;61365;-68
2022/03/24 01:07:09;;;;;;;264.00;137.30;;;;;;;0.65;63.52;99884.02;104979;1268;61288;-70
2022/03/24 01:09:36;;;;;;;264.80;137.40;;;;;;;0.66;63.66;99883.48;104935;1271;61390;-70
2022/03/24 01:12:05;;;;;;;260.10;136.70;;;;;;;0.65;63.68;99882.45;104935;1268;61333;-70
2022/03/24 01:14:35;;;;;;;251.50;133.20;;;;;;;0.63;63.52;99878.98;104578;1271;74493;-70
2022/03/24 01:17:04;;;;;;;238.90;128.20;;;;;;;0.61;63.71;99879.00;104933;1268;61754;-70
2022/03/24 01:19:32;;;;;;;243.80;128.10;;;;;;;0.57;63.86;99878.88;105107;1269;61862;-70
2022/03/24 01:22:00;;;;;;;251.60;126.20;;;;;;;0.54;63.92;99878.91;105068;1268;76169;-69
2022/03/24 01:24:27;;;;;;;245.50;126.60;;;;;;;0.50;64.12;99875.64;105039;1268;69215;-70
2022/03/24 01:26:54;;;;;;;248.00;127.80;;;;;;;0.47;64.23;99882.50;104959;1268;74716;-69
2022/03/24 01:29:22;;;;;;;268.20;143.70;;;;;;;0.43;64.58;99883.05;105016;1271;61425;-70
2022/03/24 01:31:49;;;;;;;272.40;143.40;;;;;;;0.43;64.84;99880.96;105010;1268;61183;-72
2022/03/24 01:34:17;;;;;;;260.80;139.60;;;;;;;0.43;64.76;99881.83;105061;1268;76462;-69
2022/03/24 01:36:43;;;;;;;257.50;137.30;;;;;;;0.44;64.83;99877.11;105047;1268;69362;-71
2022/03/24 01:39:10;;;;;;;243.00;134.80;;;;;;;0.42;64.91;99869.80;104997;1268;61452;-69
2022/03/24 01:41:40;;;;;;;249.50;133.10;;;;;;;0.37;65.07;99872.81;105045;1268;61296;-69
2022/03/24 01:44:16;;;;;;;247.10;132.80;;;;;;;0.31;65.16;99873.40;105027;1269;62036;-70
2022/03/24 01:47:08;;;;;;;240.50;130.70;;;;;;;0.29;65.45;99864.16;104990;1268;75395;-70
2022/03/24 01:49:40;;;;;;;238.30;129.10;;;;;;;0.25;65.66;99862.64;105093;1268;70451;-70
2022/03/24 01:52:12;;;;;;;233.00;130.00;;;;;;;0.23;65.72;99861.27;105012;1268;74371;-70
2022/03/24 01:54:42;;;;;;;232.30;128.70;;;;;;;0.17;65.82;99866.40;105050;1269;61358;-71
2022/03/24 01:57:12;;;;;;;;;;;;;;;0.13;66.08;99861.71;105432;1268;61388;-69
2022/03/24 01:59:40;;;;;;;240.80;127.40;;;;;;;0.13;66.15;99863.48;104779;1271;76384;-70
2022/03/24 02:02:08;;;;;;;224.90;125.30;;;;;;;0.12;66.36;99859.46;105055;1268;69249;-71
2022/03/24 02:04:35;;;;;;;230.90;127.70;;;;;;;0.11;66.43;99857.90;105448;1268;74391;-71
2022/03/24 02:07:03;;;;;;;238.40;128.00;;;;;;;0.09;66.53;99864.73;105170;1271;61381;-70
2022/03/24 02:09:30;;;;;;;237.80;129.80;;;;;;;0.07;66.81;99868.25;105123;1268;62177;-71
2022/03/24 02:11:56;;;;;;;233.10;131.10;;;;;;;0.01;67.55;99870.05;105050;1268;75625;-70
2022/03/24 02:14:23;;;;;;;240.00;133.80;;;;;;;-0.04;67.56;99871.51;105340;1268;70290;-73
2022/03/24 02:16:49;;;;;;;249.30;136.90;;;;;;;-0.04;67.79;99875.70;105324;1265;73559;-70
2022/03/24 02:19:17;;;;;;;236.20;132.40;;;;;;;-0.03;67.99;99876.03;105134;1268;61297;-69
2022/03/24 02:21:45;;;;;;;232.10;127.00;;;;;;;0.02;68.07;99880.89;104871;1271;61270;-71
2022/03/24 02:24:14;;;;;;;246.50;132.50;;;;;;;0.09;68.08;99878.19;105099;1269;77074;-70
2022/03/24 02:26:42;;;;;;;232.20;125.20;;;;;;;0.15;67.99;99875.68;105234;1268;69357;-71
2022/03/24 02:29:11;;;;;;;234.50;129.30;;;;;;;0.20;68.04;99874.74;104779;1268;74507;-70
2022/03/24 02:31:41;;;;;;;235.40;134.40;;;;;;;0.24;67.96;99868.77;105154;1268;61400;-71
2022/03/24 02:36:54;;;;;;;242.20;136.00;;;;;;;0.20;67.80;99866.36;105025;1268;76282;-69
2022/03/24 02:39:22;;;;;;;226.10;128.00;;;;;;;0.15;67.77;99864.85;104740;1268;69589;-71
2022/03/24 02:41:51;;;;;;;242.00;134.40;;;;;;;0.11;67.92;99868.04;105395;1268;73582;-71
2022/03/24 02:44:26;;;;;;;241.90;140.30;;;;;;;0.07;68.06;99873.48;104680;1268;1003937;-71
2022/03/24 02:46:56;;;;;;;244.00;137.10;;;;;;;0.02;68.21;99874.76;104967;1271;61506;-71
2022/03/24 02:49:25;;;;;;;250.00;143.60;;;;;;;-0.02;68.12;99872.53;105054;1268;75164;-70
2022/03/24 02:51:54;;;;;;;243.70;133.40;;;;;;;-0.06;68.21;99870.49;105086;1271;69377;-71
2022/03/24 02:54:22;;;;;;;234.80;134.60;;;;;;;-0.12;68.35;99867.39;104912;1268;73877;-70
2022/03/24 02:56:48;;;;;;;242.30;133.00;;;;;;;-0.20;68.59;99867.83;105253;1268;61238;-72
2022/03/24 02:59:15;;;;;;;238.20;132.70;;;;;;;-0.28;68.70;99869.11;104982;1268;61949;-70
2022/03/24 03:01:50;;;;;;;241.50;136.40;;;;;;;-0.35;68.87;99868.83;105025;1268;75371;-70
2022/03/24 03:04:17;;;;;;;237.40;140.10;;;;;;;-0.39;69.19;99873.93;105128;1268;68873;-71
2022/03/24 03:06:44;;;;;;;239.10;135.80;;;;;;;-0.41;69.47;99876.39;104952;1268;74679;-69
2022/03/24 03:09:14;;;;;;;234.40;135.80;;;;;;;-0.41;69.64;99882.67;104927;1268;61476;-70
2022/03/24 03:11:47;;;;;;;;;;;;;;;-0.39;69.86;99882.82;104746;1268;62100;-71
2022/03/24 03:14:15;;;;;;;231.60;131.60;;;;;;;-0.34;69.77;99884.36;104945;1268;75312;-71
2022/03/24 03:16:44;;;;;;;233.80;129.60;;;;;;;-0.31;69.96;99885.89;105079;1268;70076;-70
2022/03/24 03:19:17;;;;;;;237.10;132.50;;;;;;;-0.28;70.28;99897.05;105185;1268;74447;-70
2022/03/24 03:21:45;;;;;;;239.90;135.70;;;;;;;-0.25;70.45;99897.20;104842;1269;61339;-70
2022/03/24 03:24:12;;;;;;;240.50;135.40;;;;;;;-0.22;70.53;99899.80;105101;1268;61315;-70
2022/03/24 03:26:40;;;;;;;228.40;135.30;;;;;;;-0.19;70.72;99898.20;105135;1268;76353;-70
2022/03/24 03:29:07;;;;;;;248.00;136.30;;;;;;;-0.17;70.75;99897.48;104993;1269;70085;-69
2022/03/24 03:31:35;;;;;;;239.60;138.00;;;;;;;-0.17;71.12;99902.02;104933;1268;74348;-70
2022/03/24 03:34:06;;;;;;;238.80;138.60;;;;;;;-0.17;71.35;99904.82;105119;1268;61272;-71
2022/03/24 03:36:33;;;;;;;237.70;137.40;;;;;;;-0.16;71.78;99915.27;105140;1268;61324;-70
2022/03/24 03:39:00;;;;;;;246.70;141.60;;;;;;;-0.18;71.90;99921.59;105098;1268;76404;-70
2022/03/24 03:41:28;;;;;;;234.50;139.90;;;;;;;-0.19;72.07;99918.98;105131;1268;69592;-70
2022/03/24 03:43:55;;;;;;;233.00;137.90;;;;;;;-0.21;71.82;99920.23;105247;1268;73125;-70
2022/03/24 03:46:23;;;;;;;232.00;135.20;;;;;;;-0.24;71.88;99921.29;105258;1268;61147;-70
2022/03/24 03:48:50;;;;;;;240.30;135.50;;;;;;;-0.26;71.75;99922.88;105190;1271;62097;-72
2022/03/24 03:51:17;;;;;;;231.60;131.70;;;;;;;-0.31;71.78;99922.39;105242;1268;61253;-71
2022/03/24 03:53:43;;;;;;;231.10;133.60;;;;;;;-0.39;71.76;99917.39;105285;1268;70402;-71
2022/03/24 03:56:12;;;;;;;222.00;130.70;;;;;;;-0.46;71.77;99920.23;104920;1268;74607;-70
2022/03/24 03:58:39;;;;;;;227.40;132.70;;;;;;;-0.55;71.84;99920.30;105295;1267;61323;-72
2022/03/24 04:01:08;;;;;;;232.60;133.20;;;;;;;-0.66;71.82;99914.79;105325;1268;61343;-70
2022/03/24 04:03:37;;;;;;;217.70;128.30;;;;;;;-0.73;71.82;99911.85;104746;1268;76541;-70
2022/03/24 04:06:10;;;;;;;220.40;129.20;;;;;;;-0.80;71.95;99917.14;105016;1268;68576;-71
2022/03/24 04:08:42;;;;;;;228.20;134.30;;;;;;;-0.85;72.20;99915.95;105266;1268;72276;-69
2022/03/24 04:11:10;;;;;;;225.10;130.90;;;;;;;-0.87;72.28;99922.42;105042;1268;61370;-70
2022/03/24 04:13:39;;;;;;;224.50;135.20;;;;;;;-0.89;72.66;99929.77;105004;1268;61294;-72
2022/03/24 04:16:11;;;;;;;223.60;133.60;;;;;;;-0.91;72.56;99932.39;104975;1268;76259;-70
2022/03/24 04:18:39;;;;;;;223.10;132.90;;;;;;;-0.92;72.65;99932.05;105169;1268;70304;-71
2022/03/24 04:21:07;;;;;;;228.70;130.10;;;;;;;-0.92;72.67;99932.39;105152;1268;73772;-71
2022/03/24 04:23:37;;;;;;;233.70;134.70;;;;;;;-0.91;72.85;99931.86;104980;1268;61399;-71
2022/03/24 04:26:05;;;;;;;224.70;132.90;;;;;;;-0.93;73.25;99939.03;105041;1268;61361;-70
2022/03/24 04:28:32;;;;;;;230.80;132.70;;;;;;;-0.93;73.52;99944.95;105202;1268;76385;-70
2022/03/24 04:30:59;;;;;;;221.40;135.10;;;;;;;-0.91;73.89;99948.95;104935;1268;70287;-70
2022/03/24 04:33:25;;;;;;;203.60;127.60;;;;;;;-0.88;73.73;99948.07;104968;1268;74711;-71
2022/03/24 04:35:52;;;;;;;197.40;122.60;;;;;;;-0.85;73.67;99950.15;105123;1268;61345;-70
2022/03/24 04:38:19;;;;;;;196.40;122.90;;;;;;;-0.83;73.52;99942.98;104945;1268;61260;-70
2022/03/24 04:40:47;;;;;;;215.50;124.70;;;;;;;-0.81;73.46;99948.20;104905;1268;76470;-73
2022/03/24 04:43:14;;;;;;;193.20;123.10;;;;;;;-0.79;73.51;99947.86;105268;1268;70282;-70
2022/03/24 04:45:41;;;;;;;205.60;127.10;;;;;;;-0.80;73.51;99947.86;104921;1268;73544;-70
2022/03/24 04:48:08;;;;;;;212.50;132.30;;;;;;;-0.80;73.42;99948.90;104803;1268;61310;-69
2022/03/24 04:50:35;;;;;;;205.90;124.60;;;;;;;-0.81;73.30;99950.48;104981;1268;61147;-70
2022/03/24 04:53:02;;;;;;;194.80;120.90;;;;;;;-0.82;73.23;99951.02;104899;1268;76243;-71
2022/03/24 04:55:29;;;;;;;205.10;120.80;;;;;;;-0.84;73.10;99953.63;104955;1268;70393;-69
2022/03/24 04:57:55;;;;;;;204.50;123.10;;;;;;;-0.86;73.00;99955.73;104971;1268;73686;-70
2022/03/24 05:00:22;;;;;;;200.40;121.80;;;;;;;-0.85;73.15;99955.91;104216;1268;1003001;-71
2022/03/24 05:02:49;;;;;;;198.20;120.80;;;;;;;-0.76;73.11;99953.23;105175;1268;61239;-69
2022/03/24 05:05:15;;;;;;;205.50;125.10;;;;;;;-0.63;72.95;99960.84;104977;1268;61301;-70
2022/03/24 05:07:42;;;;;;;192.50;121.20;;;;;;;-0.52;72.64;99961.81;105234;1268;61370;-72
2022/03/24 05:10:10;;;;;;;192.80;122.50;;;;;;;-0.37;72.45;99968.00;104950;1268;73341;-70
2022/03/24 05:12:40;;;;;;;204.90;127.20;;;;;;;-0.22;72.29;99967.72;105058;1268;61236;-69
2022/03/24 05:15:09;;;;;;;219.20;132.70;;;;;;;-0.07;72.06;99969.19;105444;1268;61183;-71
2022/03/24 05:17:36;;;;;;;216.50;131.30;;;;;;;0.05;71.77;99969.95;105210;1268;75772;-72
2022/03/24 05:20:04;;;;;;;216.70;135.70;;;;;;;0.21;71.66;99970.52;105208;1268;70321;-70
2022/03/24 05:22:31;;;;;;;211.00;133.80;;;;;;;0.36;71.51;99971.06;105373;1268;73639;-71
2022/03/24 05:24:57;;;;;;;211.70;134.90;;;;;;;0.54;71.23;99968.95;105123;1268;61346;-71
2022/03/24 05:27:24;;;;;;;213.30;135.30;;;;;;;0.63;71.21;99974.28;104967;1268;61356;-71
2022/03/24 05:29:50;;;;;;;215.70;137.60;;;;;;;0.83;70.90;99974.41;104931;1269;61356;-71
2022/03/24 05:32:16;;;;;;;209.80;136.10;;;;;;;1.00;70.58;99976.48;104952;1268;61356;-72
2022/03/24 05:34:44;;;;;;;214.70;138.70;;;;;;;1.15;70.25;99973.48;105297;1269;61576;-70
2022/03/24 05:37:11;;;;;;;210.00;142.70;;;;;;;1.28;70.06;99970.35;105144;1269;61862;-69
2022/03/24 05:39:38;;;;;;;214.30;140.30;;;;;;;1.41;69.74;99968.76;105318;1269;61332;-70
2022/03/24 05:42:05;;;;;;;277.80;158.60;;;;;;;1.57;69.51;99975.02;105020;1268;75280;-70
2022/03/24 05:44:32;;;;;;;269.10;159.00;;;;;;;1.72;69.27;99976.71;104638;1271;70197;-69
2022/03/24 05:46:59;;;;;;;260.30;161.60;;;;;;;1.92;69.11;99971.86;105044;1268;74802;-71
2022/03/24 05:49:26;;;;;;;280.10;165.30;;;;;;;2.11;68.88;99977.85;105074;1268;61407;-71
2022/03/24 05:51:53;;;;;;;244.20;154.20;;;;;;;2.31;68.68;99975.07;105081;1268;62659;-71
2022/03/24 05:54:20;;;;;;;238.90;155.30;;;;;;;2.48;68.22;99976.86;104983;1268;61250;-71
2022/03/24 05:56:48;;;;;;;244.70;161.00;;;;;;;2.71;68.20;99984.52;105154;1268;70319;-70
2022/03/24 05:59:15;;;;;;;226.80;149.50;;;;;;;2.99;68.09;99977.81;105428;1268;72941;-71
2022/03/24 06:01:45;;;;;;;222.20;150.50;;;;;;;3.10;67.70;99980.56;105049;1268;61329;-69
2022/03/24 06:04:14;;;;;;;226.10;150.10;;;;;;;3.21;67.62;99980.52;105192;1268;61226;-69
2022/03/24 06:06:42;;;;;;;230.30;151.90;;;;;;;3.23;67.30;99981.02;105304;1268;76418;-71
2022/03/24 06:09:09;;;;;;;219.70;150.60;;;;;;;3.22;67.15;99983.14;105334;1268;69164;-72
2022/03/24 06:11:37;;;;;;;224.20;147.10;;;;;;;3.21;67.06;99985.27;105268;1268;73712;-72
2022/03/24 06:14:04;;;;;;;209.90;145.00;;;;;;;3.24;67.28;99985.20;105360;1268;61400;-72
2022/03/24 06:16:32;;;;;;;209.70;146.90;;;;;;;3.32;67.48;99987.66;105295;1268;61316;-72
2022/03/24 06:19:00;;;;;;;206.50;146.00;;;;;;;3.44;67.86;99994.60;105345;1268;76354;-71
2022/03/24 06:21:28;;;;;;;217.30;147.40;;;;;;;3.59;67.90;99990.41;105262;1268;68172;-71
2022/03/24 06:23:54;;;;;;;216.10;149.00;;;;;;;3.68;67.66;99989.33;105389;1268;74506;-71
2022/03/24 06:26:23;;;;;;;213.70;144.80;;;;;;;3.77;67.89;99990.52;105162;1268;61169;-69
2022/03/24 06:28:52;;;;;;;209.80;144.60;;;;;;;3.82;68.06;99996.73;104930;1268;61249;-72
2022/03/24 06:31:20;;;;;;;206.20;140.00;;;;;;;3.89;68.22;99997.63;104590;1270;72369;-72
2022/03/24 06:33:47;;;;;;;196.80;138.20;;;;;;;3.96;68.22;99997.98;105059;1268;68434;-71
2022/03/24 06:36:15;;;;;;;205.60;142.50;;;;;;;4.01;68.11;100001.05;104816;1268;74428;-71
2022/03/24 06:38:42;;;;;;;181.50;124.60;;;;;;;4.04;68.15;99996.56;105116;1268;61345;-71
2022/03/24 06:41:09;;;;;;;191.10;131.80;;;;;;;4.08;68.09;100000.16;104954;1268;61259;-70
2022/03/24 06:43:36;;;;;;;175.20;122.70;;;;;;;4.15;68.03;100006.14;104910;1268;76405;-71
2022/03/24 06:46:06;;;;;;;157.00;103.60;;;;;;;4.25;67.73;100009.07;104904;1268;70367;-72
2022/03/24 06:48:33;;;;;;;145.50;100.60;;;;;;;4.37;67.27;100005.59;105403;1268;74867;-70
2022/03/24 06:50:59;;;;;;;145.90;98.90;;;;;;;4.51;67.10;100007.52;104630;1268;61339;-70
2022/03/24 06:53:26;;;;;;;152.60;106.90;;;;;;;4.66;66.92;100013.46;104685;1268;61424;-70
2022/03/24 06:55:52;;;;;;;156.80;113.10;;;;;;;4.77;66.69;100016.34;104922;1268;61259;-69
2022/03/24 06:58:19;;;;;;;161.10;117.70;;;;;;;4.85;66.44;100013.31;105262;1268;61256;-70
2022/03/24 07:00:45;;;;;;;148.60;102.20;;;;;;;4.96;66.33;100012.49;104918;1265;61326;-70
2022/03/24 07:03:12;;;;;;;151.90;103.00;;;;;;;5.09;66.14;100007.01;104970;1268;61269;-72
2022/03/24 07:05:39;;;;;;;138.00;96.00;;;;;;;5.23;65.97;100010.14;104722;1268;61241;-71
2022/03/24 07:08:07;;;;;;;139.80;95.60;;;;;;;5.36;65.65;100008.90;104942;1268;61198;-72
2022/03/24 07:10:33;;;;;;;132.90;94.40;;;;;;;5.46;65.62;100008.41;104920;1268;70481;-71
2022/03/24 07:13:00;;;;;;;137.20;95.60;;;;;;;5.58;65.31;100012.27;104840;1268;61355;-70
2022/03/24 07:15:27;;;;;;;127.90;91.90;;;;;;;5.69;65.18;100013.52;104956;1268;61339;-71
2022/03/24 07:17:53;;;;;;;128.30;91.90;;;;;;;5.81;65.13;100010.34;105042;1268;61298;-72
2022/03/24 07:20:21;;;;;;;121.00;90.20;;;;;;;5.97;65.04;100012.53;104820;1267;61316;-70
2022/03/24 07:22:48;;;;;;;135.10;92.40;;;;;;;6.11;64.91;100010.66;104873;1268;70333;-71
2022/03/24 07:25:15;;;;;;;124.50;90.00;;;;;;;6.24;64.78;100013.08;104960;1268;61702;-71
2022/03/24 07:27:42;;;;;;;118.70;87.00;;;;;;;6.35;64.78;100011.29;104936;1268;61352;-70
2022/03/24 07:30:10;;;;;;;107.40;79.50;;;;;;;6.49;64.72;100003.95;104890;1268;61525;-69
2022/03/24 07:32:38;;;;;;;97.70;72.60;;;;;;;6.62;64.42;100007.39;104705;1268;75375;-71
2022/03/24 07:35:05;;;;;;;96.80;72.10;;;;;;;6.74;64.16;100003.59;105002;1268;69322;-71
2022/03/24 07:37:32;;;;;;;105.60;75.00;;;;;;;6.86;63.88;100002.48;105415;1268;73254;-70
2022/03/24 07:39:59;;;;;;;100.00;71.80;;;;;;;6.99;63.70;99997.74;104647;1271;61567;-70
2022/03/24 07:42:25;;;;;;;92.10;65.50;;;;;;;7.13;63.41;99990.02;104735;1269;61985;-72
2022/03/24 07:44:52;;;;;;;92.40;65.00;;;;;;;7.25;62.68;99994.31;104971;1268;61260;-70
2022/03/24 07:47:18;;;;;;;79.30;55.60;;;;;;;7.39;61.87;99988.86;105281;1268;61377;-71
2022/03/24 07:49:46;;;;;;;71.20;51.60;;;;;;;7.52;60.14;99984.81;105305;1269;61409;-70
2022/03/24 07:52:14;;;;;;;71.90;53.10;;;;;;;7.65;59.08;99981.85;105273;1268;61370;-70
2022/03/24 07:54:56;;;;;;;75.90;52.30;;;;;;;7.78;58.35;99982.94;105270;1269;61934;-70
2022/03/24 07:57:27;;;;;;;69.80;47.80;;;;;;;7.93;57.87;99976.84;104948;1268;76409;-72
2022/03/24 07:59:53;;;;;;;69.80;48.60;;;;;;;8.09;56.64;99983.12;105320;1268;69105;-72
2022/03/24 08:02:19;;;;;;;68.80;48.30;;;;;;;8.22;55.96;99991.25;105346;1268;61247;-71
2022/03/24 08:04:46;;;;;;;65.10;47.00;;;;;;;8.32;55.40;99989.74;105282;1269;61304;-71
2022/03/24 08:07:12;;;;;;;66.10;46.10;;;;;;;8.45;54.98;99990.13;105303;1268;60008;-73
2022/03/24 08:09:39;;;;;;;63.70;47.10;;;;;;;8.56;53.59;99993.92;105335;1269;61166;-71
2022/03/24 08:12:06;;;;;;;62.40;45.40;;;;;;;8.67;53.57;99998.08;105343;1268;61189;-71
2022/03/24 08:14:33;;;;;;;69.80;47.90;;;;;;;8.77;52.93;99994.45;104796;1271;73450;-70
2022/03/24 08:16:59;;;;;;;69.50;49.60;;;;;;;8.87;52.63;99990.48;104840;1268;61253;-70
2022/03/24 08:19:26;;;;;;;64.70;46.70;;;;;;;8.97;52.28;99990.54;104896;1268;62250;-69
2022/03/24 08:21:52;;;;;;;63.40;46.20;;;;;;;9.06;50.95;99991.04;105270;1268;75393;-74
2022/03/24 08:24:19;;;;;;;56.60;43.30;;;;;;;9.10;50.24;99992.48;105114;1268;69538;-69
2022/03/24 08:26:45;;;;;;;65.00;47.00;;;;;;;9.15;50.27;99989.94;105031;1268;61130;-71
2022/03/24 08:29:12;;;;;;;62.00;46.60;;;;;;;9.23;50.16;99990.10;105321;1268;61245;-70
2022/03/24 08:31:39;;;;;;;68.70;48.40;;;;;;;9.35;49.89;99993.84;104893;1268;61342;-71
2022/03/24 08:34:05;;;;;;;64.40;45.70;;;;;;;9.44;49.47;99993.02;104929;1268;75645;-71
2022/03/24 08:36:32;;;;;;;63.00;45.00;;;;;;;9.53;49.02;99993.17;104905;1268;61333;-71
2022/03/24 08:38:59;;;;;;;60.10;45.60;;;;;;;9.60;48.65;99993.70;105089;1271;61279;-69
2022/03/24 08:41:26;;;;;;;60.10;41.70;;;;;;;9.69;48.34;99995.77;104847;1268;61400;-70
2022/03/24 08:43:53;;;;;;;59.00;42.00;;;;;;;9.78;47.84;99990.36;104960;1268;61974;-71
2022/03/24 08:46:24;;;;;;;58.00;41.90;;;;;;;9.87;47.93;99993.50;104872;1269;61214;-69
2022/03/24 08:48:52;;;;;;;55.00;41.40;;;;;;;10.02;47.90;99996.67;104907;1268;70211;-69
2022/03/24 08:51:19;;;;;;;53.10;40.40;;;;;;;10.16;47.50;99995.10;105058;1271;73467;-70
2022/03/24 08:53:47;;;;;;;53.00;41.00;;;;;;;10.28;46.77;99995.96;105057;1268;61303;-70
2022/03/24 08:56:14;;;;;;;56.00;42.20;;;;;;;10.35;46.41;99995.59;104940;1269;61301;-71
2022/03/24 08:58:41;;;;;;;53.30;41.40;;;;;;;10.47;46.31;99998.23;105061;1268;76147;-70
2022/03/24 09:01:08;;;;;;;58.70;42.70;;;;;;;10.56;46.04;100000.23;105352;1268;69734;-71
2022/03/24 09:03:34;;;;;;;56.80;44.10;;;;;;;10.61;45.42;99999.45;105351;1269;72808;-70
2022/03/24 09:06:00;;;;;;;56.80;42.30;;;;;;;10.61;45.24;99998.76;104886;1269;61298;-70
2022/03/24 09:08:27;;;;;;;58.40;42.70;;;;;;;10.64;45.28;99999.29;104884;1271;61260;-70
2022/03/24 09:10:53;;;;;;;57.90;41.60;;;;;;;10.74;45.34;99997.73;105258;1269;61254;-69
2022/03/24 09:13:20;;;;;;;53.70;40.90;;;;;;;10.86;45.16;99998.02;104656;1272;61366;-72
2022/03/24 09:15:47;;;;;;;55.40;41.30;;;;;;;10.96;44.90;100000.14;105322;1268;61778;-70
2022/03/24 09:18:14;;;;;;;52.00;40.90;;;;;;;11.05;44.50;100001.08;104891;1270;61285;-70
2022/03/24 09:20:40;;;;;;;50.40;39.40;;;;;;;11.14;44.07;100000.79;105465;1268;61265;-70
2022/03/24 09:23:08;;;;;;;51.00;39.60;;;;;;;11.18;42.90;99999.30;104897;1268;75241;-70
2022/03/24 09:25:35;;;;;;;53.50;37.60;;;;;;;11.24;43.51;99998.27;104644;1271;69071;-70
2022/03/24 09:28:01;;;;;;;50.40;39.00;;;;;;;11.40;43.78;100000.13;104887;1269;73622;-70
2022/03/24 09:30:28;;;;;;;51.90;38.50;;;;;;;11.56;43.48;99997.46;104645;1272;61205;-70
2022/03/24 09:32:54;;;;;;;45.80;37.20;;;;;;;11.68;42.60;99995.39;104873;1271;61313;-72
2022/03/24 09:35:21;;;;;;;54.90;40.30;;;;;;;11.70;42.01;99997.92;104903;1269;75494;-71
2022/03/24 09:37:48;;;;;;;51.30;39.90;;;;;;;11.72;42.31;99998.20;104908;1268;69084;-71
2022/03/24 09:40:14;;;;;;;51.70;40.30;;;;;;;11.84;42.42;99998.59;104883;1268;73450;-69
2022/03/24 09:42:41;;;;;;;56.40;40.60;;;;;;;11.96;41.75;99995.23;105029;1268;61346;-70
2022/03/24 09:45:11;;;;;;;52.30;40.10;;;;;;;12.06;41.44;99998.98;104658;1274;61279;-70
2022/03/24 09:47:38;;;;;;;53.90;39.60;;;;;;;12.13;41.38;99993.25;104920;1269;75592;-70
2022/03/24 09:50:05;;;;;;;55.10;40.20;;;;;;;12.19;41.36;99992.17;104872;1268;69820;-70
2022/03/24 09:52:32;;;;;;;53.40;39.90;;;;;;;12.28;40.94;99991.48;104750;1271;72511;-69
2022/03/24 09:54:58;;;;;;;51.00;38.50;;;;;;;12.39;41.08;99993.83;104884;1268;61371;-70
2022/03/24 09:57:25;;;;;;;51.60;39.80;;;;;;;12.53;40.86;99994.45;104872;1268;62003;-72
2022/03/24 09:59:51;;;;;;;52.40;40.10;;;;;;;12.63;40.68;99990.47;104877;1268;61334;-71
2022/03/24 10:02:18;;;;;;;51.30;38.90;;;;;;;12.74;40.31;99991.99;104839;1268;61299;-69
2022/03/24 10:04:51;;;;;;;49.50;38.90;;;;;;;12.79;39.91;99990.77;104910;1269;61256;-69
2022/03/24 10:07:20;;;;;;;53.10;36.70;;;;;;;12.87;39.83;99990.30;104843;1271;61304;-71
2022/03/24 10:09:48;;;;;;;48.50;35.00;;;;;;;12.96;39.63;99986.90;105165;1269;61893;-70
2022/03/24 10:12:31;;;;;;;41.10;35.10;;;;;;;13.08;39.53;99984.35;105317;1268;76357;-71
2022/03/24 10:15:10;;;;;;;44.30;34.60;;;;;;;13.21;39.40;99985.53;105177;1268;70472;-70
2022/03/24 10:17:38;;;;;;;43.10;32.90;;;;;;;13.31;38.75;99985.83;105081;1268;72956;-69
2022/03/24 10:20:08;;;;;;;44.70;35.20;;;;;;;13.34;37.91;99981.36;104901;1268;61514;-70
2022/03/24 10:22:35;;;;;;;47.10;36.80;;;;;;;13.26;37.50;99984.55;104954;1268;62397;-70
2022/03/24 10:25:18;;;;;;;44.10;35.80;;;;;;;13.28;37.76;99981.73;104856;1268;76423;-70
2022/03/24 10:27:49;;;;;;;45.50;35.70;;;;;;;13.40;37.08;99979.56;104647;1274;70297;-70
2022/03/24 10:30:16;;;;;;;47.60;34.40;;;;;;;13.32;36.13;99974.52;104890;1268;74380;-71
2022/03/24 10:32:54;;;;;;;44.80;35.30;;;;;;;13.29;36.29;99974.03;104891;1268;61196;-70
2022/03/24 10:35:21;;;;;;;43.50;33.90;;;;;;;13.32;36.81;99970.11;105266;1268;61477;-72
2022/03/24 10:37:52;;;;;;;44.80;35.20;;;;;;;13.41;36.65;99970.56;105296;1268;74843;-72
2022/03/24 10:40:20;;;;;;;47.80;33.40;;;;;;;13.47;36.45;99966.62;105370;1268;70389;-71
2022/03/24 10:42:46;;;;;;;43.60;34.70;;;;;;;13.53;36.44;99967.30;105304;1268;74435;-71
2022/03/24 10:45:17;;;;;;;45.60;34.90;;;;;;;13.62;36.17;99965.35;105145;1268;61383;-69
2022/03/24 10:47:55;;;;;;;43.50;34.00;;;;;;;13.71;36.20;99964.41;105017;1268;61174;-70
2022/03/24 10:50:23;;;;;;;46.70;35.40;;;;;;;13.81;36.29;99963.73;105049;1268;75402;-69
2022/03/24 10:52:51;;;;;;;46.30;35.50;;;;;;;13.91;36.23;99958.83;104906;1268;69371;-71
2022/03/24 10:55:44;;;;;;;40.60;31.40;;;;;;;13.99;35.66;99960.59;104904;1268;74564;-69
2022/03/24 10:58:17;;;;;;;46.70;34.30;;;;;;;14.00;35.57;99957.34;104882;1268;61393;-69
2022/03/24 11:00:47;;;;;;;42.30;34.00;;;;;;;14.07;35.70;99955.59;104955;1268;61177;-70
2022/03/24 11:03:16;;;;;;;47.80;37.60;;;;;;;14.14;35.43;99953.57;105037;1268;75346;-70
2022/03/24 11:05:43;;;;;;;43.30;34.40;;;;;;;14.14;35.14;99952.50;104958;1268;70332;-70
2022/03/24 11:08:14;;;;;;;47.00;35.30;;;;;;;14.18;35.35;99951.88;104889;1268;74584;-70
2022/03/24 11:10:58;;;;;;;46.70;34.00;;;;;;;14.22;35.05;99947.83;104854;1268;61278;-70